アピア の空港の天気 - METARとTAF

ファレオロ国際空港(サモア) ( NSFA / APW ) - サモア アピア
飛行場実況気象(Metar)
観測時間04/26 23:00 WSST (04/26 10:00 UTC)
風向・風速南東 2m/s
視程10km以上
天気現象
少しの雲 雲底高度 760m
全天の4割程度の雲 雲底高度 4270m
気温25℃
湿度94%
気圧1011hPa
METARNSFA 261000Z 14004KT 9999 FEW025 SCT140 25/24 Q1011 RMK DEW
過去の天気等 Google飛行場航空写真 Wunderground天気予報

過去48時間のMETAR

飛行場予報(TAF)
発表時間: 4/26 18:02 WSST (4/26 05:02 UTC)
予報対象時間: 26日19時 WSST ~ 27日19時 WSST
風向・風速西北西 4m/s
視程10km以上
天気現象弱いしゅう雨
全天の4割程度の雲 雲底高度 550m
全天の4割程度の雲 雲底高度 1,220m
TAF NSFA 260502Z 2606/2706 30007KT 9999 -SHRA SCT018 SCT040